sensor_id;sensor_type;location;lat;lon;timestamp;temperature;humidity
24252;DHT22;12380;51.118;4.176;2023-07-24T00:00:50;18.50;99.90
24252;DHT22;12380;51.118;4.176;2023-07-24T00:03:15;18.40;99.90
24252;DHT22;12380;51.118;4.176;2023-07-24T00:05:43;18.30;99.90
24252;DHT22;12380;51.118;4.176;2023-07-24T00:08:08;18.30;99.90
24252;DHT22;12380;51.118;4.176;2023-07-24T00:10:34;18.30;99.90
24252;DHT22;12380;51.118;4.176;2023-07-24T00:13:00;18.30;99.90
24252;DHT22;12380;51.118;4.176;2023-07-24T00:15:26;18.30;99.90
24252;DHT22;12380;51.118;4.176;2023-07-24T00:17:54;18.40;99.90
24252;DHT22;12380;51.118;4.176;2023-07-24T00:20:20;18.40;99.90
24252;DHT22;12380;51.118;4.176;2023-07-24T00:22:45;18.40;99.90
24252;DHT22;12380;51.118;4.176;2023-07-24T00:25:11;18.30;99.90
24252;DHT22;12380;51.118;4.176;2023-07-24T00:27:36;18.30;99.90
24252;DHT22;12380;51.118;4.176;2023-07-24T00:30:02;18.20;99.90
24252;DHT22;12380;51.118;4.176;2023-07-24T00:32:28;18.20;99.90
24252;DHT22;12380;51.118;4.176;2023-07-24T00:34:53;18.20;99.90
24252;DHT22;12380;51.118;4.176;2023-07-24T00:37:19;18.20;99.90
24252;DHT22;12380;51.118;4.176;2023-07-24T00:39:44;18.30;99.90
24252;DHT22;12380;51.118;4.176;2023-07-24T00:42:10;18.30;99.90
24252;DHT22;12380;51.118;4.176;2023-07-24T00:44:36;18.20;99.90
24252;DHT22;12380;51.118;4.176;2023-07-24T00:47:03;18.30;99.90
24252;DHT22;12380;51.118;4.176;2023-07-24T00:49:31;18.30;99.90
24252;DHT22;12380;51.118;4.176;2023-07-24T00:51:56;18.40;99.90
24252;DHT22;12380;51.118;4.176;2023-07-24T00:54:22;18.30;99.90
24252;DHT22;12380;51.118;4.176;2023-07-24T00:56:48;18.20;99.90
24252;DHT22;12380;51.118;4.176;2023-07-24T00:59:14;18.20;99.90
24252;DHT22;12380;51.118;4.176;2023-07-24T01:01:40;18.20;99.90
24252;DHT22;12380;51.118;4.176;2023-07-24T01:04:06;18.20;99.90
24252;DHT22;12380;51.118;4.176;2023-07-24T01:06:32;18.10;99.90
24252;DHT22;12380;51.118;4.176;2023-07-24T01:09:00;18.10;99.90
24252;DHT22;12380;51.118;4.176;2023-07-24T01:11:30;18.10;99.90
24252;DHT22;12380;51.118;4.176;2023-07-24T01:14:08;18.20;99.90
24252;DHT22;12380;51.118;4.176;2023-07-24T01:16:36;18.10;99.90
24252;DHT22;12380;51.118;4.176;2023-07-24T01:19:03;18.20;99.90
24252;DHT22;12380;51.118;4.176;2023-07-24T01:21:38;18.10;99.90
24252;DHT22;12380;51.118;4.176;2023-07-24T01:26:30;18.20;99.90
24252;DHT22;12380;51.118;4.176;2023-07-24T01:28:56;18.20;99.90
24252;DHT22;12380;51.118;4.176;2023-07-24T01:31:21;18.20;99.90
24252;DHT22;12380;51.118;4.176;2023-07-24T01:33:47;18.30;99.90
24252;DHT22;12380;51.118;4.176;2023-07-24T01:36:12;18.20;99.90
24252;DHT22;12380;51.118;4.176;2023-07-24T01:38:38;18.20;99.90
24252;DHT22;12380;51.118;4.176;2023-07-24T01:41:04;18.20;99.90
24252;DHT22;12380;51.118;4.176;2023-07-24T01:43:30;18.20;99.90
24252;DHT22;12380;51.118;4.176;2023-07-24T01:45:59;18.30;99.90
24252;DHT22;12380;51.118;4.176;2023-07-24T01:48:25;18.10;99.90
24252;DHT22;12380;51.118;4.176;2023-07-24T01:50:52;18.10;99.90
24252;DHT22;12380;51.118;4.176;2023-07-24T01:53:18;18.00;99.90
24252;DHT22;12380;51.118;4.176;2023-07-24T01:55:43;18.00;99.90
24252;DHT22;12380;51.118;4.176;2023-07-24T01:58:09;18.10;99.90
24252;DHT22;12380;51.118;4.176;2023-07-24T02:00:34;18.10;99.90
24252;DHT22;12380;51.118;4.176;2023-07-24T02:03:00;17.90;99.90
24252;DHT22;12380;51.118;4.176;2023-07-24T02:05:26;17.90;99.90
24252;DHT22;12380;51.118;4.176;2023-07-24T02:07:51;17.90;99.90
24252;DHT22;12380;51.118;4.176;2023-07-24T02:10:17;17.80;99.90
24252;DHT22;12380;51.118;4.176;2023-07-24T02:12:42;17.80;99.90
24252;DHT22;12380;51.118;4.176;2023-07-24T02:15:08;17.80;99.90
24252;DHT22;12380;51.118;4.176;2023-07-24T02:17:34;17.60;99.90
24252;DHT22;12380;51.118;4.176;2023-07-24T02:20:02;17.70;99.90
24252;DHT22;12380;51.118;4.176;2023-07-24T02:22:28;17.70;99.90
24252;DHT22;12380;51.118;4.176;2023-07-24T02:24:53;17.80;99.90
24252;DHT22;12380;51.118;4.176;2023-07-24T02:27:29;17.70;99.90
24252;DHT22;12380;51.118;4.176;2023-07-24T02:29:56;17.80;99.90
24252;DHT22;12380;51.118;4.176;2023-07-24T02:32:22;17.80;99.90
24252;DHT22;12380;51.118;4.176;2023-07-24T02:34:51;17.90;99.90
24252;DHT22;12380;51.118;4.176;2023-07-24T02:37:17;17.80;99.90
24252;DHT22;12380;51.118;4.176;2023-07-24T02:39:42;17.80;99.90
24252;DHT22;12380;51.118;4.176;2023-07-24T02:42:08;17.70;99.90
24252;DHT22;12380;51.118;4.176;2023-07-24T02:44:34;17.60;99.90
24252;DHT22;12380;51.118;4.176;2023-07-24T02:47:02;17.60;99.90
24252;DHT22;12380;51.118;4.176;2023-07-24T02:49:29;17.50;99.90
24252;DHT22;12380;51.118;4.176;2023-07-24T02:51:55;17.70;99.90
24252;DHT22;12380;51.118;4.176;2023-07-24T02:54:20;17.70;99.90
24252;DHT22;12380;51.118;4.176;2023-07-24T02:56:46;17.60;99.90
24252;DHT22;12380;51.118;4.176;2023-07-24T02:59:13;17.60;99.90
24252;DHT22;12380;51.118;4.176;2023-07-24T03:01:39;17.50;99.90
24252;DHT22;12380;51.118;4.176;2023-07-24T03:04:04;17.70;99.90
24252;DHT22;12380;51.118;4.176;2023-07-24T03:06:31;17.60;99.90
24252;DHT22;12380;51.118;4.176;2023-07-24T03:08:57;17.50;99.90
24252;DHT22;12380;51.118;4.176;2023-07-24T03:11:26;17.50;99.90
24252;DHT22;12380;51.118;4.176;2023-07-24T03:13:51;17.40;99.90
24252;DHT22;12380;51.118;4.176;2023-07-24T03:16:19;17.40;99.90
24252;DHT22;12380;51.118;4.176;2023-07-24T03:18:46;17.30;99.90
24252;DHT22;12380;51.118;4.176;2023-07-24T03:21:14;17.40;99.90
24252;DHT22;12380;51.118;4.176;2023-07-24T03:23:40;17.40;99.90
24252;DHT22;12380;51.118;4.176;2023-07-24T03:26:06;17.30;99.90
24252;DHT22;12380;51.118;4.176;2023-07-24T03:28:31;17.20;99.90
24252;DHT22;12380;51.118;4.176;2023-07-24T03:30:57;17.20;99.90
24252;DHT22;12380;51.118;4.176;2023-07-24T03:33:22;17.10;99.90
24252;DHT22;12380;51.118;4.176;2023-07-24T03:35:48;17.20;99.90
24252;DHT22;12380;51.118;4.176;2023-07-24T03:38:13;17.10;99.90
24252;DHT22;12380;51.118;4.176;2023-07-24T03:40:39;17.00;99.90
24252;DHT22;12380;51.118;4.176;2023-07-24T03:43:07;17.00;99.90
24252;DHT22;12380;51.118;4.176;2023-07-24T03:45:35;17.00;99.90
24252;DHT22;12380;51.118;4.176;2023-07-24T03:48:03;16.90;99.90
24252;DHT22;12380;51.118;4.176;2023-07-24T03:50:29;16.90;99.90
24252;DHT22;12380;51.118;4.176;2023-07-24T03:52:57;17.00;99.90
24252;DHT22;12380;51.118;4.176;2023-07-24T03:55:25;17.00;99.90
24252;DHT22;12380;51.118;4.176;2023-07-24T03:57:50;17.00;99.90
24252;DHT22;12380;51.118;4.176;2023-07-24T04:00:16;17.00;99.90
24252;DHT22;12380;51.118;4.176;2023-07-24T04:02:44;16.70;99.90
24252;DHT22;12380;51.118;4.176;2023-07-24T04:05:12;16.70;99.90
24252;DHT22;12380;51.118;4.176;2023-07-24T04:07:37;16.70;99.90
24252;DHT22;12380;51.118;4.176;2023-07-24T04:10:03;16.70;99.90
24252;DHT22;12380;51.118;4.176;2023-07-24T04:12:29;16.70;99.90
24252;DHT22;12380;51.118;4.176;2023-07-24T04:14:54;16.70;99.90
24252;DHT22;12380;51.118;4.176;2023-07-24T04:17:20;16.70;99.90
24252;DHT22;12380;51.118;4.176;2023-07-24T04:19:46;16.70;99.90
24252;DHT22;12380;51.118;4.176;2023-07-24T04:22:14;16.80;99.90
24252;DHT22;12380;51.118;4.176;2023-07-24T04:24:39;16.80;99.90
24252;DHT22;12380;51.118;4.176;2023-07-24T04:27:05;16.80;99.90
24252;DHT22;12380;51.118;4.176;2023-07-24T04:29:30;16.90;99.90
24252;DHT22;12380;51.118;4.176;2023-07-24T04:31:56;16.70;99.90
24252;DHT22;12380;51.118;4.176;2023-07-24T04:34:22;16.70;99.90
24252;DHT22;12380;51.118;4.176;2023-07-24T04:36:47;16.60;99.90
24252;DHT22;12380;51.118;4.176;2023-07-24T04:39:13;16.60;99.90
24252;DHT22;12380;51.118;4.176;2023-07-24T04:41:38;16.60;99.90
24252;DHT22;12380;51.118;4.176;2023-07-24T04:44:06;16.50;99.90
24252;DHT22;12380;51.118;4.176;2023-07-24T04:46:32;16.60;99.90
24252;DHT22;12380;51.118;4.176;2023-07-24T04:48:57;16.60;99.90
24252;DHT22;12380;51.118;4.176;2023-07-24T04:51:23;16.70;99.90
24252;DHT22;12380;51.118;4.176;2023-07-24T04:53:48;16.70;99.90
24252;DHT22;12380;51.118;4.176;2023-07-24T04:56:14;16.50;99.90
24252;DHT22;12380;51.118;4.176;2023-07-24T04:58:39;16.60;99.90
24252;DHT22;12380;51.118;4.176;2023-07-24T05:01:05;16.70;99.90
24252;DHT22;12380;51.118;4.176;2023-07-24T05:03:33;16.60;99.90
24252;DHT22;12380;51.118;4.176;2023-07-24T05:06:03;16.50;99.90
24252;DHT22;12380;51.118;4.176;2023-07-24T05:08:29;16.50;99.90
24252;DHT22;12380;51.118;4.176;2023-07-24T05:10:57;16.70;99.90
24252;DHT22;12380;51.118;4.176;2023-07-24T05:13:24;16.60;99.90
24252;DHT22;12380;51.118;4.176;2023-07-24T05:15:49;16.70;99.90
24252;DHT22;12380;51.118;4.176;2023-07-24T05:18:15;16.70;99.90
24252;DHT22;12380;51.118;4.176;2023-07-24T05:20:46;16.80;99.90
24252;DHT22;12380;51.118;4.176;2023-07-24T05:23:12;16.60;99.90
24252;DHT22;12380;51.118;4.176;2023-07-24T05:25:38;16.60;99.90
24252;DHT22;12380;51.118;4.176;2023-07-24T05:28:06;16.70;99.90
24252;DHT22;12380;51.118;4.176;2023-07-24T05:30:34;16.50;99.90
24252;DHT22;12380;51.118;4.176;2023-07-24T05:33:00;16.60;99.90
24252;DHT22;12380;51.118;4.176;2023-07-24T05:35:25;16.60;99.90
24252;DHT22;12380;51.118;4.176;2023-07-24T05:37:53;16.50;99.90
24252;DHT22;12380;51.118;4.176;2023-07-24T05:40:21;16.60;99.90
24252;DHT22;12380;51.118;4.176;2023-07-24T05:42:49;16.70;99.90
24252;DHT22;12380;51.118;4.176;2023-07-24T05:45:15;16.70;99.90
24252;DHT22;12380;51.118;4.176;2023-07-24T05:47:40;16.70;99.90
24252;DHT22;12380;51.118;4.176;2023-07-24T05:50:06;16.60;99.90
24252;DHT22;12380;51.118;4.176;2023-07-24T05:52:32;16.60;99.90
24252;DHT22;12380;51.118;4.176;2023-07-24T05:54:57;16.70;99.90
24252;DHT22;12380;51.118;4.176;2023-07-24T05:57:23;16.80;99.90
24252;DHT22;12380;51.118;4.176;2023-07-24T05:59:48;16.80;99.90
24252;DHT22;12380;51.118;4.176;2023-07-24T06:02:16;16.80;99.90
24252;DHT22;12380;51.118;4.176;2023-07-24T06:04:41;17.00;99.90
24252;DHT22;12380;51.118;4.176;2023-07-24T06:07:07;17.20;99.90
24252;DHT22;12380;51.118;4.176;2023-07-24T06:09:32;17.40;99.90
24252;DHT22;12380;51.118;4.176;2023-07-24T06:11:58;17.60;99.90
24252;DHT22;12380;51.118;4.176;2023-07-24T06:14:23;17.70;99.90
24252;DHT22;12380;51.118;4.176;2023-07-24T06:16:49;17.80;99.90
24252;DHT22;12380;51.118;4.176;2023-07-24T06:19:17;17.70;99.90
24252;DHT22;12380;51.118;4.176;2023-07-24T06:21:42;17.90;99.90
24252;DHT22;12380;51.118;4.176;2023-07-24T06:24:08;17.90;99.90
24252;DHT22;12380;51.118;4.176;2023-07-24T06:26:37;18.10;99.90
24252;DHT22;12380;51.118;4.176;2023-07-24T06:29:03;18.20;99.90
24252;DHT22;12380;51.118;4.176;2023-07-24T06:31:28;18.10;99.90
24252;DHT22;12380;51.118;4.176;2023-07-24T06:33:54;18.00;99.90
24252;DHT22;12380;51.118;4.176;2023-07-24T06:36:19;18.00;99.90
24252;DHT22;12380;51.118;4.176;2023-07-24T06:38:45;17.90;99.90
24252;DHT22;12380;51.118;4.176;2023-07-24T06:41:13;17.90;99.90
24252;DHT22;12380;51.118;4.176;2023-07-24T06:43:41;18.00;99.90
24252;DHT22;12380;51.118;4.176;2023-07-24T06:46:06;18.10;99.90
24252;DHT22;12380;51.118;4.176;2023-07-24T06:48:32;18.00;99.90
24252;DHT22;12380;51.118;4.176;2023-07-24T06:50:57;18.00;99.90
24252;DHT22;12380;51.118;4.176;2023-07-24T06:53:25;17.80;99.90
24252;DHT22;12380;51.118;4.176;2023-07-24T06:55:51;17.70;99.90
24252;DHT22;12380;51.118;4.176;2023-07-24T06:58:16;17.70;99.90
24252;DHT22;12380;51.118;4.176;2023-07-24T07:00:45;17.70;99.90
24252;DHT22;12380;51.118;4.176;2023-07-24T07:03:10;17.70;99.90
24252;DHT22;12380;51.118;4.176;2023-07-24T07:05:36;17.70;99.90
24252;DHT22;12380;51.118;4.176;2023-07-24T07:08:01;17.60;99.90
24252;DHT22;12380;51.118;4.176;2023-07-24T07:10:27;17.60;99.90
24252;DHT22;12380;51.118;4.176;2023-07-24T07:12:52;17.50;99.90
24252;DHT22;12380;51.118;4.176;2023-07-24T07:15:18;17.60;99.90
24252;DHT22;12380;51.118;4.176;2023-07-24T07:17:44;17.50;99.90
24252;DHT22;12380;51.118;4.176;2023-07-24T07:20:09;17.50;99.90
24252;DHT22;12380;51.118;4.176;2023-07-24T07:22:35;17.40;99.90
24252;DHT22;12380;51.118;4.176;2023-07-24T07:25:00;17.40;99.90
24252;DHT22;12380;51.118;4.176;2023-07-24T07:27:28;17.30;99.90
24252;DHT22;12380;51.118;4.176;2023-07-24T07:29:54;17.40;99.90
24252;DHT22;12380;51.118;4.176;2023-07-24T07:32:22;17.40;99.90
24252;DHT22;12380;51.118;4.176;2023-07-24T07:34:48;17.50;99.90
24252;DHT22;12380;51.118;4.176;2023-07-24T07:37:13;17.70;99.90
24252;DHT22;12380;51.118;4.176;2023-07-24T07:39:39;17.80;99.90
24252;DHT22;12380;51.118;4.176;2023-07-24T07:42:04;18.00;99.90
24252;DHT22;12380;51.118;4.176;2023-07-24T07:44:32;18.30;99.90
24252;DHT22;12380;51.118;4.176;2023-07-24T07:47:00;18.60;99.90
24252;DHT22;12380;51.118;4.176;2023-07-24T07:49:26;18.80;99.90
24252;DHT22;12380;51.118;4.176;2023-07-24T07:51:51;18.60;99.90
24252;DHT22;12380;51.118;4.176;2023-07-24T07:54:17;18.50;99.90
24252;DHT22;12380;51.118;4.176;2023-07-24T07:56:42;18.60;99.90
24252;DHT22;12380;51.118;4.176;2023-07-24T07:59:08;18.70;99.90
24252;DHT22;12380;51.118;4.176;2023-07-24T08:01:35;18.90;99.90
24252;DHT22;12380;51.118;4.176;2023-07-24T08:04:01;18.80;99.90
24252;DHT22;12380;51.118;4.176;2023-07-24T08:06:26;19.10;99.90
24252;DHT22;12380;51.118;4.176;2023-07-24T08:08:52;19.30;99.90
24252;DHT22;12380;51.118;4.176;2023-07-24T08:11:18;19.70;99.90
24252;DHT22;12380;51.118;4.176;2023-07-24T08:13:43;19.70;99.90
24252;DHT22;12380;51.118;4.176;2023-07-24T08:16:12;20.10;99.90
24252;DHT22;12380;51.118;4.176;2023-07-24T08:18:42;20.40;99.90
24252;DHT22;12380;51.118;4.176;2023-07-24T08:21:08;20.70;99.90
24252;DHT22;12380;51.118;4.176;2023-07-24T08:23:33;20.30;99.90
24252;DHT22;12380;51.118;4.176;2023-07-24T08:25:59;20.00;99.90
24252;DHT22;12380;51.118;4.176;2023-07-24T08:28:25;19.70;99.90
24252;DHT22;12380;51.118;4.176;2023-07-24T08:30:57;19.50;99.90
24252;DHT22;12380;51.118;4.176;2023-07-24T08:33:23;19.50;99.90
24252;DHT22;12380;51.118;4.176;2023-07-24T08:35:57;19.40;99.90
24252;DHT22;12380;51.118;4.176;2023-07-24T08:38:22;19.60;99.90
24252;DHT22;12380;51.118;4.176;2023-07-24T08:40:59;19.80;99.90
24252;DHT22;12380;51.118;4.176;2023-07-24T08:43:24;19.80;99.90
24252;DHT22;12380;51.118;4.176;2023-07-24T08:45:50;19.50;99.90
24252;DHT22;12380;51.118;4.176;2023-07-24T08:48:16;19.20;99.90
24252;DHT22;12380;51.118;4.176;2023-07-24T08:50:41;19.20;99.90
24252;DHT22;12380;51.118;4.176;2023-07-24T08:53:07;19.40;99.90
24252;DHT22;12380;51.118;4.176;2023-07-24T08:55:33;19.90;99.90
24252;DHT22;12380;51.118;4.176;2023-07-24T08:57:59;20.70;99.90
24252;DHT22;12380;51.118;4.176;2023-07-24T09:00:24;21.10;99.90
24252;DHT22;12380;51.118;4.176;2023-07-24T09:02:50;21.20;99.90
24252;DHT22;12380;51.118;4.176;2023-07-24T09:05:15;21.20;99.90
24252;DHT22;12380;51.118;4.176;2023-07-24T09:07:42;21.20;99.90
24252;DHT22;12380;51.118;4.176;2023-07-24T09:10:08;21.50;99.90
24252;DHT22;12380;51.118;4.176;2023-07-24T09:12:33;21.50;99.90
24252;DHT22;12380;51.118;4.176;2023-07-24T09:15:04;21.40;99.90
24252;DHT22;12380;51.118;4.176;2023-07-24T09:17:30;21.00;99.90
24252;DHT22;12380;51.118;4.176;2023-07-24T09:19:56;20.70;99.90
24252;DHT22;12380;51.118;4.176;2023-07-24T09:22:25;20.60;99.90
24252;DHT22;12380;51.118;4.176;2023-07-24T09:24:54;20.60;99.90
24252;DHT22;12380;51.118;4.176;2023-07-24T09:27:21;20.80;99.90
24252;DHT22;12380;51.118;4.176;2023-07-24T09:29:49;20.70;99.90
24252;DHT22;12380;51.118;4.176;2023-07-24T09:32:19;20.70;99.90
24252;DHT22;12380;51.118;4.176;2023-07-24T09:34:48;20.80;99.90
24252;DHT22;12380;51.118;4.176;2023-07-24T09:37:22;20.70;99.90
24252;DHT22;12380;51.118;4.176;2023-07-24T09:39:48;20.60;99.90
24252;DHT22;12380;51.118;4.176;2023-07-24T09:42:13;20.70;99.90
24252;DHT22;12380;51.118;4.176;2023-07-24T09:44:41;21.10;99.90
24252;DHT22;12380;51.118;4.176;2023-07-24T09:47:07;21.40;99.90
24252;DHT22;12380;51.118;4.176;2023-07-24T09:49:32;22.30;99.90
24252;DHT22;12380;51.118;4.176;2023-07-24T09:51:58;22.40;99.90
24252;DHT22;12380;51.118;4.176;2023-07-24T09:54:30;22.90;99.90
24252;DHT22;12380;51.118;4.176;2023-07-24T09:56:57;23.40;99.90
24252;DHT22;12380;51.118;4.176;2023-07-24T09:59:24;23.00;99.90
24252;DHT22;12380;51.118;4.176;2023-07-24T10:01:51;22.80;99.90
24252;DHT22;12380;51.118;4.176;2023-07-24T10:04:18;22.80;99.90
24252;DHT22;12380;51.118;4.176;2023-07-24T10:06:44;23.40;99.90
24252;DHT22;12380;51.118;4.176;2023-07-24T10:09:12;23.00;99.90
24252;DHT22;12380;51.118;4.176;2023-07-24T10:11:38;22.50;99.90
24252;DHT22;12380;51.118;4.176;2023-07-24T10:14:04;22.00;99.90
24252;DHT22;12380;51.118;4.176;2023-07-24T10:16:30;21.80;99.90
24252;DHT22;12380;51.118;4.176;2023-07-24T10:18:55;21.60;99.90
24252;DHT22;12380;51.118;4.176;2023-07-24T10:21:26;21.60;99.90
24252;DHT22;12380;51.118;4.176;2023-07-24T10:23:51;21.40;99.90
24252;DHT22;12380;51.118;4.176;2023-07-24T10:26:23;21.00;99.90
24252;DHT22;12380;51.118;4.176;2023-07-24T10:28:53;20.90;99.90
24252;DHT22;12380;51.118;4.176;2023-07-24T10:31:23;20.70;99.90
24252;DHT22;12380;51.118;4.176;2023-07-24T10:33:49;20.50;99.90
24252;DHT22;12380;51.118;4.176;2023-07-24T10:36:18;20.40;99.90
24252;DHT22;12380;51.118;4.176;2023-07-24T10:38:45;20.40;99.90
24252;DHT22;12380;51.118;4.176;2023-07-24T10:41:13;20.20;99.90
24252;DHT22;12380;51.118;4.176;2023-07-24T10:43:49;20.40;99.90
24252;DHT22;12380;51.118;4.176;2023-07-24T10:46:18;20.60;99.90
24252;DHT22;12380;51.118;4.176;2023-07-24T10:48:45;20.50;99.90
24252;DHT22;12380;51.118;4.176;2023-07-24T10:51:14;20.60;99.90
24252;DHT22;12380;51.118;4.176;2023-07-24T10:53:44;20.40;99.90
24252;DHT22;12380;51.118;4.176;2023-07-24T10:56:10;20.10;99.90
24252;DHT22;12380;51.118;4.176;2023-07-24T10:58:35;19.80;99.90
24252;DHT22;12380;51.118;4.176;2023-07-24T11:01:03;20.00;99.90
24252;DHT22;12380;51.118;4.176;2023-07-24T11:03:30;20.30;99.90
24252;DHT22;12380;51.118;4.176;2023-07-24T11:05:58;20.60;99.90
24252;DHT22;12380;51.118;4.176;2023-07-24T11:08:26;20.70;99.90
24252;DHT22;12380;51.118;4.176;2023-07-24T11:10:53;21.30;99.90
24252;DHT22;12380;51.118;4.176;2023-07-24T11:13:21;22.10;99.90
24252;DHT22;12380;51.118;4.176;2023-07-24T11:15:47;23.00;99.90
24252;DHT22;12380;51.118;4.176;2023-07-24T11:18:13;22.80;99.90
24252;DHT22;12380;51.118;4.176;2023-07-24T11:20:43;22.30;99.90
24252;DHT22;12380;51.118;4.176;2023-07-24T11:23:09;22.30;99.90
24252;DHT22;12380;51.118;4.176;2023-07-24T11:25:35;22.40;99.90
24252;DHT22;12380;51.118;4.176;2023-07-24T11:28:00;23.00;99.90
24252;DHT22;12380;51.118;4.176;2023-07-24T11:30:29;23.10;99.90
24252;DHT22;12380;51.118;4.176;2023-07-24T11:32:56;23.90;99.90
24252;DHT22;12380;51.118;4.176;2023-07-24T11:35:22;24.20;99.90
24252;DHT22;12380;51.118;4.176;2023-07-24T11:37:47;23.70;99.90
24252;DHT22;12380;51.118;4.176;2023-07-24T11:40:13;24.30;99.90
24252;DHT22;12380;51.118;4.176;2023-07-24T11:42:44;24.20;99.90
24252;DHT22;12380;51.118;4.176;2023-07-24T11:45:10;24.40;99.90
24252;DHT22;12380;51.118;4.176;2023-07-24T11:47:45;24.50;99.90
24252;DHT22;12380;51.118;4.176;2023-07-24T11:50:11;23.40;99.90
24252;DHT22;12380;51.118;4.176;2023-07-24T11:52:38;23.50;99.90
24252;DHT22;12380;51.118;4.176;2023-07-24T11:55:06;23.40;99.90
24252;DHT22;12380;51.118;4.176;2023-07-24T11:57:32;23.70;99.90
24252;DHT22;12380;51.118;4.176;2023-07-24T11:59:58;23.40;99.90
24252;DHT22;12380;51.118;4.176;2023-07-24T12:02:27;23.20;99.90
24252;DHT22;12380;51.118;4.176;2023-07-24T12:04:56;23.40;99.90
24252;DHT22;12380;51.118;4.176;2023-07-24T12:07:23;23.80;99.90
24252;DHT22;12380;51.118;4.176;2023-07-24T12:09:53;24.40;99.90
24252;DHT22;12380;51.118;4.176;2023-07-24T12:12:19;23.80;99.90
24252;DHT22;12380;51.118;4.176;2023-07-24T12:14:44;23.20;99.90
24252;DHT22;12380;51.118;4.176;2023-07-24T12:17:10;22.60;99.90
24252;DHT22;12380;51.118;4.176;2023-07-24T12:19:42;22.80;99.90
24252;DHT22;12380;51.118;4.176;2023-07-24T12:22:07;23.10;99.90
24252;DHT22;12380;51.118;4.176;2023-07-24T12:24:33;23.40;99.90
24252;DHT22;12380;51.118;4.176;2023-07-24T12:26:59;23.40;99.90
24252;DHT22;12380;51.118;4.176;2023-07-24T12:29:24;23.10;99.90
24252;DHT22;12380;51.118;4.176;2023-07-24T12:31:51;22.10;99.90
24252;DHT22;12380;51.118;4.176;2023-07-24T12:34:16;21.80;99.90
24252;DHT22;12380;51.118;4.176;2023-07-24T12:36:42;21.90;99.90
24252;DHT22;12380;51.118;4.176;2023-07-24T12:39:07;21.70;99.90
24252;DHT22;12380;51.118;4.176;2023-07-24T12:41:33;21.60;99.90
24252;DHT22;12380;51.118;4.176;2023-07-24T12:43:58;21.70;99.90
24252;DHT22;12380;51.118;4.176;2023-07-24T12:46:24;22.10;99.90
24252;DHT22;12380;51.118;4.176;2023-07-24T12:48:50;22.20;99.90
24252;DHT22;12380;51.118;4.176;2023-07-24T12:51:15;22.20;99.90
24252;DHT22;12380;51.118;4.176;2023-07-24T12:53:41;22.20;99.90
24252;DHT22;12380;51.118;4.176;2023-07-24T12:56:06;21.80;99.90
24252;DHT22;12380;51.118;4.176;2023-07-24T12:58:32;21.40;99.90
24252;DHT22;12380;51.118;4.176;2023-07-24T13:00:57;21.20;99.90
24252;DHT22;12380;51.118;4.176;2023-07-24T13:03:23;20.70;99.90
24252;DHT22;12380;51.118;4.176;2023-07-24T13:05:49;20.20;99.90
24252;DHT22;12380;51.118;4.176;2023-07-24T13:08:14;20.10;99.90
24252;DHT22;12380;51.118;4.176;2023-07-24T13:10:47;20.30;99.90
24252;DHT22;12380;51.118;4.176;2023-07-24T13:13:12;19.90;99.90
24252;DHT22;12380;51.118;4.176;2023-07-24T13:15:38;19.70;99.90
24252;DHT22;12380;51.118;4.176;2023-07-24T13:18:03;19.70;99.90
24252;DHT22;12380;51.118;4.176;2023-07-24T13:20:29;19.60;99.90
24252;DHT22;12380;51.118;4.176;2023-07-24T13:22:54;19.60;99.90
24252;DHT22;12380;51.118;4.176;2023-07-24T13:25:22;19.40;99.90
24252;DHT22;12380;51.118;4.176;2023-07-24T13:27:48;19.20;99.90
24252;DHT22;12380;51.118;4.176;2023-07-24T13:30:14;19.10;99.90
24252;DHT22;12380;51.118;4.176;2023-07-24T13:32:39;18.90;99.90
24252;DHT22;12380;51.118;4.176;2023-07-24T13:35:06;18.80;99.90
24252;DHT22;12380;51.118;4.176;2023-07-24T13:37:32;18.80;99.90
24252;DHT22;12380;51.118;4.176;2023-07-24T13:39:57;18.80;99.90
24252;DHT22;12380;51.118;4.176;2023-07-24T13:42:23;18.80;99.90
24252;DHT22;12380;51.118;4.176;2023-07-24T13:44:48;18.80;99.90
24252;DHT22;12380;51.118;4.176;2023-07-24T13:47:16;18.60;99.90
24252;DHT22;12380;51.118;4.176;2023-07-24T13:49:42;18.70;99.90
24252;DHT22;12380;51.118;4.176;2023-07-24T13:52:07;18.60;99.90
24252;DHT22;12380;51.118;4.176;2023-07-24T13:54:33;18.50;99.90
24252;DHT22;12380;51.118;4.176;2023-07-24T13:56:58;18.40;99.90
24252;DHT22;12380;51.118;4.176;2023-07-24T13:59:24;18.20;99.90
24252;DHT22;12380;51.118;4.176;2023-07-24T14:01:50;18.30;99.90
24252;DHT22;12380;51.118;4.176;2023-07-24T14:04:16;18.10;99.90
24252;DHT22;12380;51.118;4.176;2023-07-24T14:06:42;18.00;99.90
24252;DHT22;12380;51.118;4.176;2023-07-24T14:09:07;17.80;99.90
24252;DHT22;12380;51.118;4.176;2023-07-24T14:11:33;17.70;99.90
24252;DHT22;12380;51.118;4.176;2023-07-24T14:13:59;17.60;99.90
24252;DHT22;12380;51.118;4.176;2023-07-24T14:16:25;17.50;99.90
24252;DHT22;12380;51.118;4.176;2023-07-24T14:18:51;17.70;99.90
24252;DHT22;12380;51.118;4.176;2023-07-24T14:21:17;17.70;99.90
24252;DHT22;12380;51.118;4.176;2023-07-24T14:23:42;18.00;99.90
24252;DHT22;12380;51.118;4.176;2023-07-24T14:26:08;18.00;99.90
24252;DHT22;12380;51.118;4.176;2023-07-24T14:28:34;18.10;99.90
24252;DHT22;12380;51.118;4.176;2023-07-24T14:31:02;18.10;99.90
24252;DHT22;12380;51.118;4.176;2023-07-24T14:33:27;18.20;99.90
24252;DHT22;12380;51.118;4.176;2023-07-24T14:35:53;18.00;99.90
24252;DHT22;12380;51.118;4.176;2023-07-24T14:38:20;18.20;99.90
24252;DHT22;12380;51.118;4.176;2023-07-24T14:40:45;18.10;99.90
24252;DHT22;12380;51.118;4.176;2023-07-24T14:43:13;18.10;99.90
24252;DHT22;12380;51.118;4.176;2023-07-24T14:45:39;18.10;99.90
24252;DHT22;12380;51.118;4.176;2023-07-24T14:48:05;18.20;99.90
24252;DHT22;12380;51.118;4.176;2023-07-24T14:50:34;18.40;99.90
24252;DHT22;12380;51.118;4.176;2023-07-24T14:53:02;19.00;99.90
24252;DHT22;12380;51.118;4.176;2023-07-24T14:55:27;19.60;99.90
24252;DHT22;12380;51.118;4.176;2023-07-24T14:57:53;20.40;99.90
24252;DHT22;12380;51.118;4.176;2023-07-24T15:00:18;20.40;99.90
24252;DHT22;12380;51.118;4.176;2023-07-24T15:02:44;20.80;99.90
24252;DHT22;12380;51.118;4.176;2023-07-24T15:05:09;21.10;99.90
24252;DHT22;12380;51.118;4.176;2023-07-24T15:07:38;21.10;99.90
24252;DHT22;12380;51.118;4.176;2023-07-24T15:10:03;20.80;99.90
24252;DHT22;12380;51.118;4.176;2023-07-24T15:12:29;20.20;99.90
24252;DHT22;12380;51.118;4.176;2023-07-24T15:14:56;20.20;99.90
24252;DHT22;12380;51.118;4.176;2023-07-24T15:17:24;20.20;99.90
24252;DHT22;12380;51.118;4.176;2023-07-24T15:19:50;19.70;99.90
24252;DHT22;12380;51.118;4.176;2023-07-24T15:22:16;19.90;99.90
24252;DHT22;12380;51.118;4.176;2023-07-24T15:24:41;20.10;99.90
24252;DHT22;12380;51.118;4.176;2023-07-24T15:27:07;20.10;99.90